createdAt,value
2019-02-27T00:00:30.698Z,102603.25
2019-02-27T00:05:23.612Z,102600.13
2019-02-27T00:10:16.498Z,102595.07
2019-02-27T00:15:09.606Z,102596.89
2019-02-27T00:20:05.081Z,102591.12
2019-02-27T00:24:57.334Z,102581.38
2019-02-27T00:29:50.252Z,102574.78
2019-02-27T00:34:43.181Z,102573.61
2019-02-27T00:39:36.070Z,102572.67
2019-02-27T00:44:28.984Z,102563.16
2019-02-27T00:49:21.881Z,102559.14
2019-02-27T00:54:14.706Z,102563.26
2019-02-27T00:59:07.613Z,102557.66
2019-02-27T01:04:02.445Z,102558.31
2019-02-27T01:08:55.388Z,102556.06
2019-02-27T01:13:48.319Z,102551.53
2019-02-27T01:18:41.229Z,102551.26
2019-02-27T01:23:34.218Z,102551.74
2019-02-27T01:28:27.111Z,102542.50
2019-02-27T01:33:19.995Z,102535.37
2019-02-27T01:38:13.084Z,102532.94
2019-02-27T01:43:06.491Z,102521.41
2019-02-27T01:47:59.516Z,102520.41
2019-02-27T01:52:52.414Z,102516.77
2019-02-27T01:57:45.622Z,102510.55
2019-02-27T02:02:40.472Z,102509.20
2019-02-27T02:07:33.393Z,102509.30
2019-02-27T02:12:30.275Z,102499.30
2019-02-27T02:18:22.406Z,102481.59
2019-02-27T02:24:16.018Z,102466.18
2019-02-27T02:30:13.200Z,102457.33
2019-02-27T02:35:54.557Z,102450.60
2019-02-27T02:41:26.119Z,102450.28
2019-02-27T02:46:47.751Z,102441.33
2019-02-27T02:52:15.810Z,102438.80
2019-02-27T02:57:43.111Z,102440.59
2019-02-27T03:03:27.106Z,102433.39
2019-02-27T03:08:56.354Z,102426.91
2019-02-27T03:14:53.348Z,102426.77
2019-02-27T03:20:40.506Z,102433.98
2019-02-27T03:25:57.198Z,102422.01
2019-02-27T03:31:34.400Z,102413.02
2019-02-27T03:37:19.737Z,102402.89
2019-02-27T03:43:10.065Z,102400.98
2019-02-27T03:48:27.525Z,102407.45
2019-02-27T03:53:43.172Z,102405.25
2019-02-27T03:59:24.877Z,102401.44
2019-02-27T04:05:12.937Z,102400.10
2019-02-27T04:10:05.791Z,102399.31
2019-02-27T04:14:58.706Z,102398.18
2019-02-27T04:19:51.640Z,102396.98
2019-02-27T04:24:44.545Z,102389.84
2019-02-27T04:29:40.770Z,102391.30
2019-02-27T04:34:33.304Z,102387.38
2019-02-27T04:39:26.791Z,102378.01
2019-02-27T04:44:20.761Z,102371.94
2019-02-27T04:49:13.642Z,102377.25
2019-02-27T04:54:07.498Z,102379.28
2019-02-27T04:59:00.541Z,102373.55
2019-02-27T05:03:53.517Z,102368.89
2019-02-27T05:08:46.518Z,102372.17
2019-02-27T05:13:39.392Z,102372.33
2019-02-27T05:18:33.525Z,102360.70
2019-02-27T05:23:26.473Z,102363.72
2019-02-27T05:28:19.489Z,102363.34
2019-02-27T05:33:12.406Z,102354.36
2019-02-27T05:38:05.439Z,102354.37
2019-02-27T05:42:58.376Z,102357.42
2019-02-27T05:47:51.244Z,102357.31
2019-02-27T05:52:48.529Z,102358.59
2019-02-27T05:57:38.979Z,102349.45
2019-02-27T06:02:31.856Z,102342.84
2019-02-27T06:07:24.754Z,102351.59
2019-02-27T06:12:17.657Z,102353.91
2019-02-27T06:17:13.495Z,102347.53
2019-02-27T06:22:06.624Z,102349.39
2019-02-27T06:26:59.521Z,102353.27
2019-02-27T06:31:52.450Z,102342.09
2019-02-27T06:36:45.310Z,102340.95
2019-02-27T06:41:39.871Z,102336.83
2019-02-27T06:46:33.329Z,102330.33
2019-02-27T06:51:26.200Z,102325.77
2019-02-27T06:56:20.961Z,102326.88
2019-02-27T07:01:14.985Z,102325.02
2019-02-27T07:06:07.926Z,102325.09
2019-02-27T07:11:10.295Z,102324.17
2019-02-27T07:15:55.752Z,102320.56
2019-02-27T07:20:48.814Z,102319.83
2019-02-27T07:25:42.172Z,102312.42
2019-02-27T07:30:35.877Z,102310.03
2019-02-27T07:35:29.319Z,102306.67
2019-02-27T07:40:22.671Z,102305.81
2019-02-27T07:45:17.571Z,102304.97
2019-02-27T07:50:14.251Z,102307.27
2019-02-27T07:55:20.848Z,102308.49
2019-02-27T08:00:05.341Z,102307.03
2019-02-27T08:04:58.263Z,102305.98
2019-02-27T08:09:51.399Z,102291.05
2019-02-27T08:14:44.422Z,102281.30
2019-02-27T08:19:37.322Z,102276.48
2019-02-27T08:24:30.241Z,102274.72
2019-02-27T08:29:23.162Z,102277.67
2019-02-27T08:34:16.104Z,102278.13
2019-02-27T08:39:09.015Z,102287.25
2019-02-27T08:44:01.923Z,102280.09
2019-02-27T08:48:54.867Z,102276.54
2019-02-27T08:53:47.840Z,102263.80
2019-02-27T08:58:40.765Z,102253.14
2019-02-27T09:03:36.192Z,102258.18
2019-02-27T09:08:31.342Z,102257.45
2019-02-27T09:13:23.288Z,102253.02
2019-02-27T09:18:16.262Z,102240.72
2019-02-27T09:23:09.122Z,102233.94
2019-02-27T09:28:03.495Z,102235.84
2019-02-27T09:32:56.743Z,102222.08
2019-02-27T09:37:51.336Z,102223.36
2019-02-27T09:42:44.669Z,102211.80
2019-02-27T09:47:37.651Z,102216.20
2019-02-27T09:52:30.770Z,102204.55
2019-02-27T09:57:23.836Z,102208.95
2019-02-27T10:02:17.922Z,102211.47
2019-02-27T10:07:10.977Z,102203.55
2019-02-27T10:12:04.060Z,102202.34
2019-02-27T10:16:57.119Z,102192.81
2019-02-27T10:21:50.058Z,102194.89
2019-02-27T10:26:42.970Z,102185.62
2019-02-27T10:31:36.089Z,102184.77
2019-02-27T10:36:30.200Z,102180.92
2019-02-27T10:41:30.458Z,102173.38
2019-02-27T10:46:25.443Z,102168.45
2019-02-27T10:51:18.573Z,102161.46
2019-02-27T10:56:11.512Z,102159.78
2019-02-27T11:01:04.723Z,102162.84
2019-02-27T11:05:58.578Z,102149.88
2019-02-27T11:10:51.719Z,102142.36
2019-02-27T11:15:45.576Z,102136.08
2019-02-27T11:20:38.769Z,102125.14
2019-02-27T11:25:31.784Z,102115.44
2019-02-27T11:30:28.661Z,102104.14
2019-02-27T11:35:22.034Z,102090.43
2019-02-27T11:40:19.184Z,102083.94
2019-02-27T11:45:12.596Z,102067.19
2019-02-27T11:50:07.880Z,102058.64
2019-02-27T11:55:00.832Z,102047.08
2019-02-27T11:59:53.864Z,102039.56
2019-02-27T12:04:47.299Z,102030.75
2019-02-27T12:09:40.298Z,102030.00
2019-02-27T12:14:33.200Z,102023.84
2019-02-27T12:19:26.380Z,102007.09
2019-02-27T12:24:19.616Z,102009.91
2019-02-27T12:29:13.081Z,101990.91
2019-02-27T12:34:06.038Z,101983.41
2019-02-27T12:38:58.922Z,101978.16
2019-02-27T12:43:52.562Z,101967.52
2019-02-27T12:48:46.569Z,101953.55
2019-02-27T12:53:39.978Z,101946.92
2019-02-27T12:58:32.887Z,101932.19
2019-02-27T13:03:25.759Z,101931.59
2019-02-27T13:08:18.975Z,101925.81
2019-02-27T13:13:12.579Z,101915.86
2019-02-27T13:18:05.618Z,101904.11
2019-02-27T13:23:03.897Z,101897.70
2019-02-27T13:27:53.435Z,101884.86
2019-02-27T13:32:46.401Z,101871.92
2019-02-27T13:37:43.752Z,101866.44
2019-02-27T13:42:35.913Z,101851.83
2019-02-27T13:47:31.145Z,101847.52
2019-02-27T13:52:25.609Z,101837.55
2019-02-27T13:57:18.656Z,101825.59
2019-02-27T14:02:11.651Z,101818.87
2019-02-27T14:07:04.635Z,101807.98
2019-02-27T14:11:58.814Z,101797.52
2019-02-27T14:16:52.557Z,101789.16
2019-02-27T14:21:45.478Z,101779.61
2019-02-27T14:26:41.484Z,101779.52
2019-02-27T14:31:33.290Z,101770.34
2019-02-27T14:36:26.160Z,101764.45
2019-02-27T14:41:19.171Z,101760.79
2019-02-27T14:46:12.301Z,101756.19
2019-02-27T14:51:07.619Z,101745.52
2019-02-27T14:56:00.155Z,101736.90
2019-02-27T15:00:53.168Z,101730.98
2019-02-27T15:05:46.279Z,101732.40
2019-02-27T15:10:41.362Z,101728.91
2019-02-27T15:15:34.528Z,101718.84
2019-02-27T15:20:27.450Z,101715.75
2019-02-27T15:25:20.376Z,101710.36
2019-02-27T15:30:16.635Z,101708.61
2019-02-27T15:35:09.961Z,101704.47
2019-02-27T15:40:04.384Z,101687.05
2019-02-27T15:44:57.325Z,101669.53
2019-02-27T15:49:50.243Z,101666.30
2019-02-27T15:54:43.151Z,101664.44
2019-02-27T15:59:40.838Z,101664.75
2019-02-27T16:04:31.058Z,101663.65
2019-02-27T16:09:24.019Z,101659.80
2019-02-27T16:14:17.088Z,101648.38
2019-02-27T16:19:10.837Z,101635.20
2019-02-27T16:24:04.473Z,101633.66
2019-02-27T16:28:57.664Z,101636.50
2019-02-27T16:33:50.542Z,101633.61
2019-02-27T16:38:43.568Z,101620.89
2019-02-27T16:43:36.518Z,101620.45
2019-02-27T16:48:31.185Z,101619.80
2019-02-27T16:53:25.331Z,101620.47
2019-02-27T16:58:18.248Z,101612.65
2019-02-27T17:03:13.450Z,101607.50
2019-02-27T17:08:07.583Z,101611.07
2019-02-27T17:13:00.568Z,101609.70
2019-02-27T17:17:53.928Z,101599.95
2019-02-27T17:22:47.062Z,101599.34
2019-02-27T17:27:39.965Z,101595.06
2019-02-27T17:32:32.900Z,101592.05
2019-02-27T17:37:25.797Z,101584.91
2019-02-27T17:42:19.334Z,101580.57
2019-02-27T17:47:12.430Z,101575.31
2019-02-27T17:52:11.272Z,101577.56
2019-02-27T17:57:02.000Z,101581.30
2019-02-27T18:01:58.807Z,101576.50
2019-02-27T18:06:52.376Z,101573.97
2019-02-27T18:11:45.270Z,101574.39
2019-02-27T18:16:38.187Z,101568.77
2019-02-27T18:21:33.834Z,101569.67
2019-02-27T18:26:25.891Z,101565.28
2019-02-27T18:31:18.780Z,101558.41
2019-02-27T18:36:16.730Z,101558.61
2019-02-27T18:41:09.710Z,101561.33
2019-02-27T18:46:02.614Z,101562.20
2019-02-27T18:50:55.961Z,101552.27
2019-02-27T18:55:50.583Z,101549.77
2019-02-27T19:00:43.985Z,101544.53
2019-02-27T19:05:38.168Z,101535.40
2019-02-27T19:10:32.026Z,101527.39
2019-02-27T19:15:25.224Z,101531.80
2019-02-27T19:20:24.901Z,101526.06
2019-02-27T19:25:16.776Z,101525.75
2019-02-27T19:30:12.485Z,101520.91
2019-02-27T19:35:05.737Z,101523.86
2019-02-27T19:39:58.699Z,101518.56
2019-02-27T19:44:51.614Z,101511.33
2019-02-27T19:49:44.519Z,101506.22
2019-02-27T19:54:38.498Z,101497.87
2019-02-27T19:59:31.475Z,101457.52
2019-02-27T20:04:24.412Z,101481.64
2019-02-27T20:09:20.225Z,101470.12
2019-02-27T20:14:12.358Z,101474.20
2019-02-27T20:19:05.363Z,101464.67
2019-02-27T20:24:01.506Z,101463.64
2019-02-27T20:28:53.374Z,101453.84
2019-02-27T20:33:46.265Z,101456.28
2019-02-27T20:38:39.274Z,101458.11
2019-02-27T20:43:32.195Z,101454.87
2019-02-27T20:48:25.203Z,101464.73
2019-02-27T20:53:21.003Z,101464.13
2019-02-27T20:58:16.111Z,101459.26
2019-02-27T21:03:07.807Z,101458.03
2019-02-27T21:08:02.250Z,101458.98
2019-02-27T21:12:55.559Z,101461.05
2019-02-27T21:17:48.418Z,101453.14
2019-02-27T21:22:42.275Z,101458.36
2019-02-27T21:27:35.295Z,101452.52
2019-02-27T21:32:28.524Z,101454.52
2019-02-27T21:37:21.384Z,101460.23
2019-02-27T21:42:18.413Z,101463.77
2019-02-27T21:47:09.181Z,101454.31
2019-02-27T21:52:02.178Z,101452.94
2019-02-27T21:56:55.248Z,101459.02
2019-02-27T22:01:48.964Z,101457.91
2019-02-27T22:06:42.118Z,101455.72
2019-02-27T22:11:34.983Z,101457.20
2019-02-27T22:16:30.421Z,101451.03
2019-02-27T22:21:22.675Z,101454.73
2019-02-27T22:26:15.664Z,101455.80
2019-02-27T22:31:09.054Z,101452.80
2019-02-27T22:36:01.976Z,101452.56
2019-02-27T22:40:55.064Z,101444.38
2019-02-27T22:45:48.016Z,101436.24
2019-02-27T22:50:41.168Z,101437.69
2019-02-27T22:55:36.370Z,101439.40
2019-02-27T23:01:21.906Z,101442.80
2019-02-27T23:06:14.922Z,101439.64
2019-02-27T23:11:08.254Z,101432.59
2019-02-27T23:16:01.209Z,101433.53
2019-02-27T23:20:56.150Z,101426.63
2019-02-27T23:25:49.221Z,101430.09
2019-02-27T23:30:42.269Z,101426.06
2019-02-27T23:35:35.247Z,101419.09
2019-02-27T23:40:28.188Z,101416.38
2019-02-27T23:45:21.122Z,101417.74
2019-02-27T23:50:15.586Z,101410.20
2019-02-27T23:55:10.061Z,101409.00
